createdAt,value
2022-09-15T00:00:47.089Z,14.80
2022-09-15T00:11:11.659Z,14.70
2022-09-15T00:21:38.270Z,14.70
2022-09-15T00:32:00.228Z,14.60
2022-09-15T00:42:24.079Z,14.60
2022-09-15T00:52:50.284Z,14.30
2022-09-15T01:03:13.961Z,14.20
2022-09-15T01:13:35.341Z,14.10
2022-09-15T01:24:34.945Z,14.00
2022-09-15T01:35:06.201Z,13.80
2022-09-15T01:45:31.478Z,13.80
2022-09-15T01:56:00.936Z,13.80
2022-09-15T02:06:29.701Z,13.70
2022-09-15T02:16:55.212Z,13.60
2022-09-15T02:27:21.857Z,13.60
2022-09-15T02:37:45.570Z,13.60
2022-09-15T02:48:09.405Z,13.70
2022-09-15T02:58:33.547Z,13.50
2022-09-15T03:08:58.298Z,13.60
2022-09-15T03:19:21.092Z,13.40
2022-09-15T03:29:42.587Z,13.30
2022-09-15T03:40:06.973Z,13.40
2022-09-15T03:50:28.602Z,13.20
2022-09-15T04:00:51.482Z,13.00
2022-09-15T04:11:15.563Z,12.90
2022-09-15T04:21:38.824Z,12.80
2022-09-15T04:32:01.002Z,12.90
2022-09-15T04:42:24.081Z,13.00
2022-09-15T04:52:45.691Z,13.00
2022-09-15T05:03:08.376Z,13.50
2022-09-15T05:13:30.103Z,13.60
2022-09-15T05:23:53.957Z,13.80
2022-09-15T05:34:15.903Z,13.80
2022-09-15T05:44:40.873Z,13.90
2022-09-15T05:55:03.742Z,14.30
2022-09-15T06:05:26.602Z,14.50
2022-09-15T06:15:48.107Z,14.90
2022-09-15T06:26:12.588Z,15.00
2022-09-15T06:36:34.670Z,15.70
2022-09-15T06:46:58.044Z,16.60
2022-09-15T06:57:19.512Z,16.80
2022-09-15T07:07:42.529Z,16.50
2022-09-15T07:18:03.952Z,17.10
2022-09-15T07:28:26.920Z,17.10
2022-09-15T07:38:51.829Z,17.00
2022-09-15T07:49:15.200Z,17.80
2022-09-15T07:59:41.019Z,17.30
2022-09-15T08:10:04.301Z,17.70
2022-09-15T08:20:26.298Z,18.20
2022-09-15T08:30:49.294Z,18.30
2022-09-15T08:41:16.246Z,17.90
2022-09-15T08:51:45.242Z,18.10
2022-09-15T09:02:39.420Z,18.20
2022-09-15T09:13:14.464Z,17.80
2022-09-15T09:23:40.036Z,18.10
2022-09-15T09:34:11.691Z,18.20
2022-09-15T09:44:33.922Z,18.10
2022-09-15T09:55:03.015Z,18.70
2022-09-15T10:05:24.870Z,18.60
2022-09-15T10:15:53.340Z,18.70
2022-09-15T10:26:23.445Z,19.40
2022-09-15T10:36:47.555Z,19.80
2022-09-15T10:47:22.845Z,19.70
2022-09-15T10:58:02.098Z,20.50
2022-09-15T11:08:39.004Z,20.60
2022-09-15T11:19:12.566Z,20.70
2022-09-15T11:29:40.814Z,19.50
2022-09-15T11:40:14.247Z,20.00
2022-09-15T11:50:40.493Z,20.20
2022-09-15T12:01:09.953Z,20.50
2022-09-15T12:11:36.575Z,19.60
2022-09-15T12:22:06.527Z,19.20
2022-09-15T12:32:31.119Z,19.50
2022-09-15T12:42:55.783Z,18.90
2022-09-15T12:53:22.840Z,19.10
2022-09-15T13:04:29.068Z,19.70
2022-09-15T13:14:54.884Z,19.60
2022-09-15T13:25:24.740Z,20.10
2022-09-15T13:36:00.834Z,20.40
2022-09-15T13:46:37.241Z,19.70
2022-09-15T13:57:02.949Z,20.50
2022-09-15T14:07:26.217Z,20.00
2022-09-15T14:17:49.345Z,20.30
2022-09-15T14:28:20.504Z,20.90
2022-09-15T14:38:43.288Z,19.80
2022-09-15T14:49:11.208Z,20.40
2022-09-15T14:59:38.628Z,19.60
2022-09-15T15:10:03.653Z,19.50
2022-09-15T15:31:15.101Z,19.60
2022-09-15T15:41:41.832Z,19.30
2022-09-15T15:52:03.777Z,19.10
2022-09-15T16:02:28.662Z,18.80
2022-09-15T16:12:50.546Z,18.20
2022-09-15T16:23:18.642Z,17.40
2022-09-15T16:33:45.276Z,17.40
2022-09-15T16:44:18.702Z,17.10
2022-09-15T16:54:40.585Z,17.00
2022-09-15T17:05:03.604Z,17.00
2022-09-15T17:15:28.818Z,17.00
2022-09-15T17:26:09.736Z,17.10
2022-09-15T17:36:36.163Z,16.80
2022-09-15T17:46:59.779Z,16.50
2022-09-15T17:57:21.840Z,16.20
2022-09-15T18:07:51.645Z,16.00
2022-09-15T18:18:15.989Z,15.80
2022-09-15T18:28:38.990Z,15.70
2022-09-15T18:39:00.933Z,15.40
2022-09-15T18:49:26.532Z,15.20
2022-09-15T18:59:48.197Z,15.20
2022-09-15T19:10:12.572Z,15.30
2022-09-15T19:20:34.222Z,15.30
2022-09-15T19:30:56.974Z,15.30
2022-09-15T19:41:18.844Z,15.20
2022-09-15T19:51:42.006Z,15.10
2022-09-15T20:02:03.629Z,15.00
2022-09-15T20:12:27.045Z,15.00
2022-09-15T20:22:48.650Z,14.90
2022-09-15T20:33:11.363Z,15.10
2022-09-15T20:43:33.253Z,14.90
2022-09-15T20:53:57.439Z,14.60
2022-09-15T21:04:19.027Z,14.50
2022-09-15T21:14:42.005Z,14.50
2022-09-15T21:25:04.924Z,14.40
2022-09-15T21:35:27.972Z,14.40
2022-09-15T21:45:49.590Z,14.30
2022-09-15T21:56:13.781Z,14.20
2022-09-15T22:06:36.838Z,14.30
2022-09-15T22:16:59.454Z,14.20
2022-09-15T22:27:20.832Z,14.10
2022-09-15T22:37:43.990Z,14.00
2022-09-15T22:48:06.252Z,14.00
2022-09-15T22:58:29.370Z,14.00
2022-09-15T23:08:52.721Z,14.00
2022-09-15T23:19:15.659Z,14.00
2022-09-15T23:29:36.858Z,13.90
2022-09-15T23:39:59.926Z,13.90
2022-09-15T23:50:21.730Z,13.80
